EDSB METAR and TAF | Updated Today

EDSB METAR

Karlsruhe Baden-Baden Airport

Observation time: 25 min. ago

EDSB 051920Z 03008KT 9999 FEW007 SCT010 OVC012 05/04 Q1036

Need help? Read our tutorial on how to read METARs or read the parsed version below.

Karlsruhe Baden-Baden Airport (EDSB) METAR

  • Weather conditions on Sun, 05 Feb 2023 19:20:00 +0000 (25 min. ago):
  • Present conditions: Dry
  • Clouds: A few at 213 meters; scattered at 305 meters; overcast sky at 366 meters
  • Visibility: Greater than 10 km
  • Wind: 30 degrees at 8 knots
  • Temperature: 5 celsius
  • Dew point: 4 celsius
  • Pressure: 1036 millibars
  • Remarks: None


Useful to know...

EDSB TAF

Karlsruhe Baden-Baden Airport

TAF EDSB 051700Z 0518/0618 03007KT 9999 SCT007 BKN020 TEMPO 0518/0610 4000 -RADZ BR BKN007
Observation time: 2:45 hr. ago
Need help? Read our tutorial on how to read TAFs or read the parsed version below.

Parsed version of TAF for Karlsruhe Baden-Baden Airport (EDSB)

  • From 05 February at 18:00 UTC, to day 06 of the month at 18:00 UTC
  • Clouds: Scattered at 213 meters; broken sky at 610 meters
  • Visibility: Greater than 10 km
  • Wind: 30 degrees at 7
  • Expected to arise temporarily, from 05 February at 18:00 UTC, to day 06 of the month at 10:00 UTC
  • Clouds: Broken sky at 213 meters
  • Visibility: 4000 meters
  • Other: Light rain drizzle; mist

Airports near EDSB